sensor_id;sensor_type;location;lat;lon;timestamp;temperature;humidity
33699;DHT22;20032;52.436;13.312;2023-02-01T00:01:59;5.10;99.90
33699;DHT22;20032;52.436;13.312;2023-02-01T00:04:25;5.10;99.90
33699;DHT22;20032;52.436;13.312;2023-02-01T00:06:50;5.10;99.90
33699;DHT22;20032;52.436;13.312;2023-02-01T00:09:16;5.10;99.90
33699;DHT22;20032;52.436;13.312;2023-02-01T00:11:41;5.10;99.90
33699;DHT22;20032;52.436;13.312;2023-02-01T00:14:07;5.10;99.90
33699;DHT22;20032;52.436;13.312;2023-02-01T00:16:33;5.10;99.90
33699;DHT22;20032;52.436;13.312;2023-02-01T00:19:02;5.10;99.90
33699;DHT22;20032;52.436;13.312;2023-02-01T00:21:28;5.10;99.90
33699;DHT22;20032;52.436;13.312;2023-02-01T00:23:54;5.10;99.90
33699;DHT22;20032;52.436;13.312;2023-02-01T00:26:25;5.10;99.90
33699;DHT22;20032;52.436;13.312;2023-02-01T00:28:53;5.10;99.90
33699;DHT22;20032;52.436;13.312;2023-02-01T00:31:18;5.10;99.90
33699;DHT22;20032;52.436;13.312;2023-02-01T00:33:47;5.10;99.90
33699;DHT22;20032;52.436;13.312;2023-02-01T00:36:13;5.20;99.90
33699;DHT22;20032;52.436;13.312;2023-02-01T00:38:38;5.10;99.90
33699;DHT22;20032;52.436;13.312;2023-02-01T00:41:07;5.10;99.90
33699;DHT22;20032;52.436;13.312;2023-02-01T00:43:34;5.10;99.90
33699;DHT22;20032;52.436;13.312;2023-02-01T00:46:00;5.10;99.90
33699;DHT22;20032;52.436;13.312;2023-02-01T00:48:26;5.00;99.90
33699;DHT22;20032;52.436;13.312;2023-02-01T00:50:52;5.00;99.90
33699;DHT22;20032;52.436;13.312;2023-02-01T00:53:17;4.90;99.90
33699;DHT22;20032;52.436;13.312;2023-02-01T00:55:45;4.90;99.90
33699;DHT22;20032;52.436;13.312;2023-02-01T00:58:11;4.90;99.90
33699;DHT22;20032;52.436;13.312;2023-02-01T01:00:36;4.90;99.90
33699;DHT22;20032;52.436;13.312;2023-02-01T01:03:02;4.80;99.90
33699;DHT22;20032;52.436;13.312;2023-02-01T01:05:44;4.80;99.90
33699;DHT22;20032;52.436;13.312;2023-02-01T01:08:09;4.80;99.90
33699;DHT22;20032;52.436;13.312;2023-02-01T01:10:35;4.70;99.90
33699;DHT22;20032;52.436;13.312;2023-02-01T01:13:00;4.70;99.90
33699;DHT22;20032;52.436;13.312;2023-02-01T01:15:26;4.70;99.90
33699;DHT22;20032;52.436;13.312;2023-02-01T01:17:51;4.70;99.90
33699;DHT22;20032;52.436;13.312;2023-02-01T01:20:17;4.70;99.90
33699;DHT22;20032;52.436;13.312;2023-02-01T01:22:42;4.70;99.90
33699;DHT22;20032;52.436;13.312;2023-02-01T01:25:08;4.70;99.90
33699;DHT22;20032;52.436;13.312;2023-02-01T01:27:33;4.70;99.90
33699;DHT22;20032;52.436;13.312;2023-02-01T01:29:59;4.70;99.90
33699;DHT22;20032;52.436;13.312;2023-02-01T01:32:24;4.70;99.90
33699;DHT22;20032;52.436;13.312;2023-02-01T01:34:50;4.70;99.90
33699;DHT22;20032;52.436;13.312;2023-02-01T01:37:15;4.70;99.90
33699;DHT22;20032;52.436;13.312;2023-02-01T01:39:40;4.80;99.90
33699;DHT22;20032;52.436;13.312;2023-02-01T01:42:10;4.90;99.90
33699;DHT22;20032;52.436;13.312;2023-02-01T01:47:39;4.90;99.90
33699;DHT22;20032;52.436;13.312;2023-02-01T01:50:08;4.90;99.90
33699;DHT22;20032;52.436;13.312;2023-02-01T01:52:35;4.90;99.90
33699;DHT22;20032;52.436;13.312;2023-02-01T01:55:02;5.00;99.90
33699;DHT22;20032;52.436;13.312;2023-02-01T01:57:33;5.00;99.90
33699;DHT22;20032;52.436;13.312;2023-02-01T02:00:08;5.00;99.90
33699;DHT22;20032;52.436;13.312;2023-02-01T02:02:35;4.90;99.90
33699;DHT22;20032;52.436;13.312;2023-02-01T02:05:01;4.90;99.90
33699;DHT22;20032;52.436;13.312;2023-02-01T02:07:31;4.90;99.90
33699;DHT22;20032;52.436;13.312;2023-02-01T02:09:57;5.00;99.90
33699;DHT22;20032;52.436;13.312;2023-02-01T02:12:23;5.20;99.90
33699;DHT22;20032;52.436;13.312;2023-02-01T02:14:48;5.20;99.90
33699;DHT22;20032;52.436;13.312;2023-02-01T02:21:13;5.10;99.90
33699;DHT22;20032;52.436;13.312;2023-02-01T02:26:21;5.00;99.90
33699;DHT22;20032;52.436;13.312;2023-02-01T02:28:57;5.00;99.90
33699;DHT22;20032;52.436;13.312;2023-02-01T02:33:13;5.00;99.90
33699;DHT22;20032;52.436;13.312;2023-02-01T02:34:37;5.00;99.90
33699;DHT22;20032;52.436;13.312;2023-02-01T02:37:18;5.00;99.90
33699;DHT22;20032;52.436;13.312;2023-02-01T02:40:08;5.00;99.90
33699;DHT22;20032;52.436;13.312;2023-02-01T02:42:41;5.00;99.90
33699;DHT22;20032;52.436;13.312;2023-02-01T02:45:38;5.00;99.90
33699;DHT22;20032;52.436;13.312;2023-02-01T02:48:32;5.00;99.90
33699;DHT22;20032;52.436;13.312;2023-02-01T02:51:09;4.90;99.90
33699;DHT22;20032;52.436;13.312;2023-02-01T02:56:48;4.90;99.90
33699;DHT22;20032;52.436;13.312;2023-02-01T02:59:35;4.90;99.90
33699;DHT22;20032;52.436;13.312;2023-02-01T03:02:23;5.00;99.90
33699;DHT22;20032;52.436;13.312;2023-02-01T03:05:12;5.00;99.90
33699;DHT22;20032;52.436;13.312;2023-02-01T03:08:02;5.00;99.90
33699;DHT22;20032;52.436;13.312;2023-02-01T03:14:06;5.10;99.90
33699;DHT22;20032;52.436;13.312;2023-02-01T03:16:40;5.00;99.90
33699;DHT22;20032;52.436;13.312;2023-02-01T03:19:14;5.10;99.90
33699;DHT22;20032;52.436;13.312;2023-02-01T03:21:44;5.10;99.90
33699;DHT22;20032;52.436;13.312;2023-02-01T03:24:37;5.10;99.90
33699;DHT22;20032;52.436;13.312;2023-02-01T03:27:27;5.10;99.90
33699;DHT22;20032;52.436;13.312;2023-02-01T03:30:16;5.10;99.90
33699;DHT22;20032;52.436;13.312;2023-02-01T03:32:44;5.10;99.90
33699;DHT22;20032;52.436;13.312;2023-02-01T03:35:33;5.10;99.90
33699;DHT22;20032;52.436;13.312;2023-02-01T03:40:35;5.10;99.90
33699;DHT22;20032;52.436;13.312;2023-02-01T03:43:04;5.10;99.90
33699;DHT22;20032;52.436;13.312;2023-02-01T03:45:38;5.20;99.90
33699;DHT22;20032;52.436;13.312;2023-02-01T03:48:07;5.10;99.90
33699;DHT22;20032;52.436;13.312;2023-02-01T03:50:35;5.10;99.90
33699;DHT22;20032;52.436;13.312;2023-02-01T03:53:08;5.10;99.90
33699;DHT22;20032;52.436;13.312;2023-02-01T03:55:35;5.10;99.90
33699;DHT22;20032;52.436;13.312;2023-02-01T03:58:12;5.10;99.90
33699;DHT22;20032;52.436;13.312;2023-02-01T04:00:38;5.10;99.90
33699;DHT22;20032;52.436;13.312;2023-02-01T04:03:05;5.10;99.90
33699;DHT22;20032;52.436;13.312;2023-02-01T04:05:31;5.10;99.90
33699;DHT22;20032;52.436;13.312;2023-02-01T04:07:57;5.20;99.90
33699;DHT22;20032;52.436;13.312;2023-02-01T04:10:23;5.20;99.90
33699;DHT22;20032;52.436;13.312;2023-02-01T04:12:49;5.20;99.90
33699;DHT22;20032;52.436;13.312;2023-02-01T04:15:14;5.20;99.90
33699;DHT22;20032;52.436;13.312;2023-02-01T04:17:39;5.20;99.90
33699;DHT22;20032;52.436;13.312;2023-02-01T04:20:05;5.20;99.90
33699;DHT22;20032;52.436;13.312;2023-02-01T04:22:31;5.30;99.90
33699;DHT22;20032;52.436;13.312;2023-02-01T04:24:57;5.30;99.90
33699;DHT22;20032;52.436;13.312;2023-02-01T04:27:22;5.30;99.90
33699;DHT22;20032;52.436;13.312;2023-02-01T04:29:48;5.30;99.90
33699;DHT22;20032;52.436;13.312;2023-02-01T04:32:15;5.30;99.90
33699;DHT22;20032;52.436;13.312;2023-02-01T04:34:41;5.30;99.90
33699;DHT22;20032;52.436;13.312;2023-02-01T04:37:07;5.40;99.90
33699;DHT22;20032;52.436;13.312;2023-02-01T04:39:33;5.40;99.90
33699;DHT22;20032;52.436;13.312;2023-02-01T04:41:58;5.40;99.90
33699;DHT22;20032;52.436;13.312;2023-02-01T04:44:24;5.40;99.90
33699;DHT22;20032;52.436;13.312;2023-02-01T04:46:49;5.40;99.90
33699;DHT22;20032;52.436;13.312;2023-02-01T04:49:15;5.40;99.90
33699;DHT22;20032;52.436;13.312;2023-02-01T04:51:41;5.50;99.90
33699;DHT22;20032;52.436;13.312;2023-02-01T04:54:07;5.50;99.90
33699;DHT22;20032;52.436;13.312;2023-02-01T04:56:34;5.50;99.90
33699;DHT22;20032;52.436;13.312;2023-02-01T04:59:00;5.50;99.90
33699;DHT22;20032;52.436;13.312;2023-02-01T05:01:28;5.50;99.90
33699;DHT22;20032;52.436;13.312;2023-02-01T05:03:53;5.50;99.90
33699;DHT22;20032;52.436;13.312;2023-02-01T05:06:19;5.50;99.90
33699;DHT22;20032;52.436;13.312;2023-02-01T05:08:44;5.60;99.90
33699;DHT22;20032;52.436;13.312;2023-02-01T05:11:09;5.60;99.90
33699;DHT22;20032;52.436;13.312;2023-02-01T05:13:55;5.60;99.90
33699;DHT22;20032;52.436;13.312;2023-02-01T05:16:21;5.50;99.90
33699;DHT22;20032;52.436;13.312;2023-02-01T05:18:46;5.60;99.90
33699;DHT22;20032;52.436;13.312;2023-02-01T05:21:12;5.60;99.90
33699;DHT22;20032;52.436;13.312;2023-02-01T05:23:38;5.60;99.90
33699;DHT22;20032;52.436;13.312;2023-02-01T05:26:24;5.60;99.90
33699;DHT22;20032;52.436;13.312;2023-02-01T05:28:49;5.60;99.90
33699;DHT22;20032;52.436;13.312;2023-02-01T05:31:15;5.60;99.90
33699;DHT22;20032;52.436;13.312;2023-02-01T05:33:41;5.60;99.90
33699;DHT22;20032;52.436;13.312;2023-02-01T05:36:06;5.60;99.90
33699;DHT22;20032;52.436;13.312;2023-02-01T05:38:32;5.50;99.90
33699;DHT22;20032;52.436;13.312;2023-02-01T05:40:57;5.50;99.90
33699;DHT22;20032;52.436;13.312;2023-02-01T05:43:23;5.60;99.90
33699;DHT22;20032;52.436;13.312;2023-02-01T05:45:49;5.50;99.90
33699;DHT22;20032;52.436;13.312;2023-02-01T05:48:14;5.50;99.90
33699;DHT22;20032;52.436;13.312;2023-02-01T05:50:39;5.50;99.90
33699;DHT22;20032;52.436;13.312;2023-02-01T05:53:05;5.50;99.90
33699;DHT22;20032;52.436;13.312;2023-02-01T05:55:32;5.50;99.90
33699;DHT22;20032;52.436;13.312;2023-02-01T05:57:57;5.50;99.90
33699;DHT22;20032;52.436;13.312;2023-02-01T06:00:23;5.50;99.90
33699;DHT22;20032;52.436;13.312;2023-02-01T06:02:49;5.50;99.90
33699;DHT22;20032;52.436;13.312;2023-02-01T06:05:14;5.40;99.90
33699;DHT22;20032;52.436;13.312;2023-02-01T06:07:40;5.40;99.90
33699;DHT22;20032;52.436;13.312;2023-02-01T06:10:05;5.40;99.90
33699;DHT22;20032;52.436;13.312;2023-02-01T06:12:31;5.40;99.90
33699;DHT22;20032;52.436;13.312;2023-02-01T06:14:57;5.40;99.90
33699;DHT22;20032;52.436;13.312;2023-02-01T06:17:23;5.40;99.90
33699;DHT22;20032;52.436;13.312;2023-02-01T06:19:49;5.40;99.90
33699;DHT22;20032;52.436;13.312;2023-02-01T06:22:14;5.40;99.90
33699;DHT22;20032;52.436;13.312;2023-02-01T06:24:40;5.40;99.90
33699;DHT22;20032;52.436;13.312;2023-02-01T06:27:06;5.40;99.90
33699;DHT22;20032;52.436;13.312;2023-02-01T06:29:32;5.40;99.90
33699;DHT22;20032;52.436;13.312;2023-02-01T06:31:58;5.40;99.90
33699;DHT22;20032;52.436;13.312;2023-02-01T06:34:23;5.40;99.90
33699;DHT22;20032;52.436;13.312;2023-02-01T06:36:49;5.40;99.90
33699;DHT22;20032;52.436;13.312;2023-02-01T06:39:15;5.30;99.90
33699;DHT22;20032;52.436;13.312;2023-02-01T06:41:45;5.30;99.90
33699;DHT22;20032;52.436;13.312;2023-02-01T06:44:11;5.30;99.90
33699;DHT22;20032;52.436;13.312;2023-02-01T06:46:36;5.30;99.90
33699;DHT22;20032;52.436;13.312;2023-02-01T06:49:02;5.30;99.90
33699;DHT22;20032;52.436;13.312;2023-02-01T06:51:28;5.30;99.90
33699;DHT22;20032;52.436;13.312;2023-02-01T06:53:55;5.30;99.90
33699;DHT22;20032;52.436;13.312;2023-02-01T06:56:21;5.30;99.90
33699;DHT22;20032;52.436;13.312;2023-02-01T06:58:47;5.30;99.90
33699;DHT22;20032;52.436;13.312;2023-02-01T07:01:13;5.30;99.90
33699;DHT22;20032;52.436;13.312;2023-02-01T07:03:39;5.40;99.90
33699;DHT22;20032;52.436;13.312;2023-02-01T07:06:05;5.40;99.90
33699;DHT22;20032;52.436;13.312;2023-02-01T07:08:33;5.40;99.90
33699;DHT22;20032;52.436;13.312;2023-02-01T07:11:04;5.40;99.90
33699;DHT22;20032;52.436;13.312;2023-02-01T07:13:29;5.40;99.90
33699;DHT22;20032;52.436;13.312;2023-02-01T07:15:58;5.40;99.90
33699;DHT22;20032;52.436;13.312;2023-02-01T07:18:24;5.40;99.90
33699;DHT22;20032;52.436;13.312;2023-02-01T07:20:50;5.40;99.90
33699;DHT22;20032;52.436;13.312;2023-02-01T07:23:16;5.30;99.90
33699;DHT22;20032;52.436;13.312;2023-02-01T07:25:42;5.30;99.90
33699;DHT22;20032;52.436;13.312;2023-02-01T07:28:07;5.30;99.90
33699;DHT22;20032;52.436;13.312;2023-02-01T07:30:33;5.30;99.90
33699;DHT22;20032;52.436;13.312;2023-02-01T07:32:58;5.30;99.90
33699;DHT22;20032;52.436;13.312;2023-02-01T07:35:27;5.30;99.90
33699;DHT22;20032;52.436;13.312;2023-02-01T07:37:52;5.30;99.90
33699;DHT22;20032;52.436;13.312;2023-02-01T07:40:18;5.30;99.90
33699;DHT22;20032;52.436;13.312;2023-02-01T07:42:43;5.30;99.90
33699;DHT22;20032;52.436;13.312;2023-02-01T07:45:09;5.20;99.90
33699;DHT22;20032;52.436;13.312;2023-02-01T07:47:34;5.20;99.90
33699;DHT22;20032;52.436;13.312;2023-02-01T07:50:00;5.10;99.90
33699;DHT22;20032;52.436;13.312;2023-02-01T07:52:28;5.00;99.90
33699;DHT22;20032;52.436;13.312;2023-02-01T07:54:53;4.90;99.90
33699;DHT22;20032;52.436;13.312;2023-02-01T07:57:19;4.80;99.90
33699;DHT22;20032;52.436;13.312;2023-02-01T07:59:44;4.80;99.90
33699;DHT22;20032;52.436;13.312;2023-02-01T08:02:31;4.70;99.90
33699;DHT22;20032;52.436;13.312;2023-02-01T08:04:56;4.70;99.90
33699;DHT22;20032;52.436;13.312;2023-02-01T08:07:22;4.60;99.90
33699;DHT22;20032;52.436;13.312;2023-02-01T08:09:47;4.60;99.90
33699;DHT22;20032;52.436;13.312;2023-02-01T08:12:13;4.60;99.90
33699;DHT22;20032;52.436;13.312;2023-02-01T08:14:38;4.60;99.90
33699;DHT22;20032;52.436;13.312;2023-02-01T08:17:06;4.50;99.90
33699;DHT22;20032;52.436;13.312;2023-02-01T08:19:31;4.50;99.90
33699;DHT22;20032;52.436;13.312;2023-02-01T08:21:57;4.50;99.90
33699;DHT22;20032;52.436;13.312;2023-02-01T08:24:24;4.40;99.90
33699;DHT22;20032;52.436;13.312;2023-02-01T08:26:50;4.40;99.90
33699;DHT22;20032;52.436;13.312;2023-02-01T08:29:15;4.30;99.90
33699;DHT22;20032;52.436;13.312;2023-02-01T08:31:41;4.40;99.90
33699;DHT22;20032;52.436;13.312;2023-02-01T08:34:08;4.40;99.90
33699;DHT22;20032;52.436;13.312;2023-02-01T08:36:34;4.40;99.90
33699;DHT22;20032;52.436;13.312;2023-02-01T08:39:00;4.40;99.90
33699;DHT22;20032;52.436;13.312;2023-02-01T08:41:28;4.40;99.90
33699;DHT22;20032;52.436;13.312;2023-02-01T08:43:55;4.40;99.90
33699;DHT22;20032;52.436;13.312;2023-02-01T08:46:20;4.40;99.90
33699;DHT22;20032;52.436;13.312;2023-02-01T08:48:47;4.60;99.90
33699;DHT22;20032;52.436;13.312;2023-02-01T08:51:14;4.50;99.90
33699;DHT22;20032;52.436;13.312;2023-02-01T08:53:40;4.50;99.90
33699;DHT22;20032;52.436;13.312;2023-02-01T08:56:07;4.50;99.90
33699;DHT22;20032;52.436;13.312;2023-02-01T08:58:33;4.60;99.90
33699;DHT22;20032;52.436;13.312;2023-02-01T09:01:04;4.50;99.90
33699;DHT22;20032;52.436;13.312;2023-02-01T09:03:30;4.40;99.90
33699;DHT22;20032;52.436;13.312;2023-02-01T09:06:02;4.40;99.90
33699;DHT22;20032;52.436;13.312;2023-02-01T09:08:27;4.40;99.90
33699;DHT22;20032;52.436;13.312;2023-02-01T09:10:53;4.40;99.90
33699;DHT22;20032;52.436;13.312;2023-02-01T09:13:18;4.40;99.90
33699;DHT22;20032;52.436;13.312;2023-02-01T09:15:45;4.40;99.90
33699;DHT22;20032;52.436;13.312;2023-02-01T09:18:10;4.40;99.90
33699;DHT22;20032;52.436;13.312;2023-02-01T09:20:37;4.40;99.90
33699;DHT22;20032;52.436;13.312;2023-02-01T09:23:02;4.40;99.90
33699;DHT22;20032;52.436;13.312;2023-02-01T09:25:28;4.40;99.90
33699;DHT22;20032;52.436;13.312;2023-02-01T09:27:53;4.40;99.90
33699;DHT22;20032;52.436;13.312;2023-02-01T09:30:19;4.40;99.90
33699;DHT22;20032;52.436;13.312;2023-02-01T09:32:44;4.40;99.90
33699;DHT22;20032;52.436;13.312;2023-02-01T09:35:10;4.40;99.90
33699;DHT22;20032;52.436;13.312;2023-02-01T09:37:35;4.40;99.90
33699;DHT22;20032;52.436;13.312;2023-02-01T09:40:03;4.50;99.90
33699;DHT22;20032;52.436;13.312;2023-02-01T09:45:34;4.50;99.90
33699;DHT22;20032;52.436;13.312;2023-02-01T09:48:19;4.50;99.90
33699;DHT22;20032;52.436;13.312;2023-02-01T09:50:53;4.60;99.90
33699;DHT22;20032;52.436;13.312;2023-02-01T09:53:33;4.60;99.90
33699;DHT22;20032;52.436;13.312;2023-02-01T09:56:06;4.60;99.90
33699;DHT22;20032;52.436;13.312;2023-02-01T09:58:36;4.60;99.90
33699;DHT22;20032;52.436;13.312;2023-02-01T10:01:04;4.60;99.90
33699;DHT22;20032;52.436;13.312;2023-02-01T10:03:33;4.60;99.90
33699;DHT22;20032;52.436;13.312;2023-02-01T10:06:36;4.60;99.90
33699;DHT22;20032;52.436;13.312;2023-02-01T10:09:58;4.60;99.90
33699;DHT22;20032;52.436;13.312;2023-02-01T10:15:30;4.60;99.90
33699;DHT22;20032;52.436;13.312;2023-02-01T10:17:37;4.60;99.90
33699;DHT22;20032;52.436;13.312;2023-02-01T10:22:41;4.60;99.90
33699;DHT22;20032;52.436;13.312;2023-02-01T10:25:14;4.60;99.90
33699;DHT22;20032;52.436;13.312;2023-02-01T10:27:43;4.60;99.90
33699;DHT22;20032;52.436;13.312;2023-02-01T10:30:19;4.60;99.90
33699;DHT22;20032;52.436;13.312;2023-02-01T10:32:45;4.60;99.90
33699;DHT22;20032;52.436;13.312;2023-02-01T10:35:16;4.70;99.90
33699;DHT22;20032;52.436;13.312;2023-02-01T10:37:42;4.80;99.90
33699;DHT22;20032;52.436;13.312;2023-02-01T10:42:43;4.90;99.90
33699;DHT22;20032;52.436;13.312;2023-02-01T10:45:14;4.70;99.90
33699;DHT22;20032;52.436;13.312;2023-02-01T10:47:41;4.60;99.90
33699;DHT22;20032;52.436;13.312;2023-02-01T10:50:13;4.60;99.90
33699;DHT22;20032;52.436;13.312;2023-02-01T10:52:46;4.70;99.90
33699;DHT22;20032;52.436;13.312;2023-02-01T10:55:36;4.80;99.90
33699;DHT22;20032;52.436;13.312;2023-02-01T10:58:05;4.80;99.90
33699;DHT22;20032;52.436;13.312;2023-02-01T11:00:47;4.80;99.90
33699;DHT22;20032;52.436;13.312;2023-02-01T11:05:48;4.90;99.90
33699;DHT22;20032;52.436;13.312;2023-02-01T11:08:16;5.10;99.90
33699;DHT22;20032;52.436;13.312;2023-02-01T11:10:43;5.10;99.90
33699;DHT22;20032;52.436;13.312;2023-02-01T11:13:16;5.20;99.90
33699;DHT22;20032;52.436;13.312;2023-02-01T11:15:45;5.20;99.90
33699;DHT22;20032;52.436;13.312;2023-02-01T11:18:17;5.30;99.90
33699;DHT22;20032;52.436;13.312;2023-02-01T11:20:45;5.30;99.90
33699;DHT22;20032;52.436;13.312;2023-02-01T11:23:18;5.40;99.90
33699;DHT22;20032;52.436;13.312;2023-02-01T11:25:53;5.40;99.90
33699;DHT22;20032;52.436;13.312;2023-02-01T11:28:22;5.50;99.90
33699;DHT22;20032;52.436;13.312;2023-02-01T11:30:49;5.60;99.90
33699;DHT22;20032;52.436;13.312;2023-02-01T11:33:20;5.70;99.90
33699;DHT22;20032;52.436;13.312;2023-02-01T11:35:48;5.90;99.90
33699;DHT22;20032;52.436;13.312;2023-02-01T11:38:28;6.00;99.90
33699;DHT22;20032;52.436;13.312;2023-02-01T11:40:55;6.10;99.90
33699;DHT22;20032;52.436;13.312;2023-02-01T11:43:35;6.10;99.90
33699;DHT22;20032;52.436;13.312;2023-02-01T11:46:02;6.20;99.90
33699;DHT22;20032;52.436;13.312;2023-02-01T11:48:31;6.20;99.90
33699;DHT22;20032;52.436;13.312;2023-02-01T11:51:04;6.30;99.90
33699;DHT22;20032;52.436;13.312;2023-02-01T11:54:00;6.30;99.90
33699;DHT22;20032;52.436;13.312;2023-02-01T11:57:04;6.30;99.90
33699;DHT22;20032;52.436;13.312;2023-02-01T12:00:01;6.30;99.90
33699;DHT22;20032;52.436;13.312;2023-02-01T12:05:31;6.20;99.90
33699;DHT22;20032;52.436;13.312;2023-02-01T12:10:52;6.40;99.90
33699;DHT22;20032;52.436;13.312;2023-02-01T12:13:37;6.50;99.90
33699;DHT22;20032;52.436;13.312;2023-02-01T12:16:31;6.70;99.90
33699;DHT22;20032;52.436;13.312;2023-02-01T12:22:18;6.70;99.90
33699;DHT22;20032;52.436;13.312;2023-02-01T12:24:44;6.70;99.90
33699;DHT22;20032;52.436;13.312;2023-02-01T12:27:56;6.70;99.90
33699;DHT22;20032;52.436;13.312;2023-02-01T12:33:51;6.90;99.90
33699;DHT22;20032;52.436;13.312;2023-02-01T12:36:41;6.90;99.90
33699;DHT22;20032;52.436;13.312;2023-02-01T12:38:40;6.90;99.90
33699;DHT22;20032;52.436;13.312;2023-02-01T12:41:29;6.70;99.90
33699;DHT22;20032;52.436;13.312;2023-02-01T12:44:04;6.70;99.90
33699;DHT22;20032;52.436;13.312;2023-02-01T12:46:43;6.70;99.90
33699;DHT22;20032;52.436;13.312;2023-02-01T12:49:18;6.70;99.90
33699;DHT22;20032;52.436;13.312;2023-02-01T12:51:47;6.70;99.90
33699;DHT22;20032;52.436;13.312;2023-02-01T12:57:04;6.60;99.90
33699;DHT22;20032;52.436;13.312;2023-02-01T12:59:36;6.60;99.90
33699;DHT22;20032;52.436;13.312;2023-02-01T13:05:19;6.60;99.90
33699;DHT22;20032;52.436;13.312;2023-02-01T13:07:53;6.50;99.90
33699;DHT22;20032;52.436;13.312;2023-02-01T13:10:36;6.50;99.90
33699;DHT22;20032;52.436;13.312;2023-02-01T13:13:22;6.50;99.90
33699;DHT22;20032;52.436;13.312;2023-02-01T13:18:21;6.60;99.90
33699;DHT22;20032;52.436;13.312;2023-02-01T13:20:55;6.60;99.90
33699;DHT22;20032;52.436;13.312;2023-02-01T13:23:31;6.70;99.90
33699;DHT22;20032;52.436;13.312;2023-02-01T13:25:58;6.60;99.90
33699;DHT22;20032;52.436;13.312;2023-02-01T13:31:33;6.60;99.90
33699;DHT22;20032;52.436;13.312;2023-02-01T13:34:43;6.70;99.90
33699;DHT22;20032;52.436;13.312;2023-02-01T13:37:25;6.70;99.90
33699;DHT22;20032;52.436;13.312;2023-02-01T13:42:54;6.60;99.90
33699;DHT22;20032;52.436;13.312;2023-02-01T13:45:24;6.70;99.90
33699;DHT22;20032;52.436;13.312;2023-02-01T13:47:52;6.70;99.90
33699;DHT22;20032;52.436;13.312;2023-02-01T13:50:30;6.70;99.90
33699;DHT22;20032;52.436;13.312;2023-02-01T13:53:03;6.70;99.90
33699;DHT22;20032;52.436;13.312;2023-02-01T13:55:34;6.70;99.90
33699;DHT22;20032;52.436;13.312;2023-02-01T13:58:02;6.70;99.90
33699;DHT22;20032;52.436;13.312;2023-02-01T14:00:34;6.70;99.90
33699;DHT22;20032;52.436;13.312;2023-02-01T14:16:12;6.70;99.90
33699;DHT22;20032;52.436;13.312;2023-02-01T14:21:20;6.60;99.90
33699;DHT22;20032;52.436;13.312;2023-02-01T14:24:03;6.60;99.90
33699;DHT22;20032;52.436;13.312;2023-02-01T14:26:46;6.60;99.90
33699;DHT22;20032;52.436;13.312;2023-02-01T14:32:21;6.60;99.90
33699;DHT22;20032;52.436;13.312;2023-02-01T14:34:49;6.60;99.90
33699;DHT22;20032;52.436;13.312;2023-02-01T14:47:54;6.60;99.90
33699;DHT22;20032;52.436;13.312;2023-02-01T14:53:04;6.70;99.90
33699;DHT22;20032;52.436;13.312;2023-02-01T14:55:40;6.70;99.90
33699;DHT22;20032;52.436;13.312;2023-02-01T14:58:19;6.70;99.90
33699;DHT22;20032;52.436;13.312;2023-02-01T15:00:50;6.70;99.90
33699;DHT22;20032;52.436;13.312;2023-02-01T15:03:25;6.70;99.90
33699;DHT22;20032;52.436;13.312;2023-02-01T15:05:57;6.70;99.90
33699;DHT22;20032;52.436;13.312;2023-02-01T15:08:27;6.60;99.90
33699;DHT22;20032;52.436;13.312;2023-02-01T15:10:55;6.40;99.90
33699;DHT22;20032;52.436;13.312;2023-02-01T15:13:26;6.30;99.90
33699;DHT22;20032;52.436;13.312;2023-02-01T15:16:13;6.10;99.90
33699;DHT22;20032;52.436;13.312;2023-02-01T15:18:39;5.90;99.90
33699;DHT22;20032;52.436;13.312;2023-02-01T15:21:12;5.70;99.90
33699;DHT22;20032;52.436;13.312;2023-02-01T15:23:39;5.40;99.90
33699;DHT22;20032;52.436;13.312;2023-02-01T15:26:05;5.30;99.90
33699;DHT22;20032;52.436;13.312;2023-02-01T15:28:30;5.20;99.90
33699;DHT22;20032;52.436;13.312;2023-02-01T15:31:01;5.10;99.90
33699;DHT22;20032;52.436;13.312;2023-02-01T15:33:29;5.10;99.90
33699;DHT22;20032;52.436;13.312;2023-02-01T15:36:16;5.10;99.90
33699;DHT22;20032;52.436;13.312;2023-02-01T15:38:42;5.00;99.90
33699;DHT22;20032;52.436;13.312;2023-02-01T15:41:15;4.80;99.90
33699;DHT22;20032;52.436;13.312;2023-02-01T15:43:48;4.80;99.90
33699;DHT22;20032;52.436;13.312;2023-02-01T15:46:34;4.80;99.90
33699;DHT22;20032;52.436;13.312;2023-02-01T15:49:01;4.80;99.90
33699;DHT22;20032;52.436;13.312;2023-02-01T15:51:29;4.90;99.90
33699;DHT22;20032;52.436;13.312;2023-02-01T15:53:59;4.80;99.90
33699;DHT22;20032;52.436;13.312;2023-02-01T15:56:28;4.80;99.90
33699;DHT22;20032;52.436;13.312;2023-02-01T15:59:00;4.80;99.90
33699;DHT22;20032;52.436;13.312;2023-02-01T16:01:26;4.70;99.90
33699;DHT22;20032;52.436;13.312;2023-02-01T16:04:20;4.60;99.90
33699;DHT22;20032;52.436;13.312;2023-02-01T16:06:50;4.60;99.90
33699;DHT22;20032;52.436;13.312;2023-02-01T16:09:18;4.60;99.90
33699;DHT22;20032;52.436;13.312;2023-02-01T16:11:56;4.40;99.90
33699;DHT22;20032;52.436;13.312;2023-02-01T16:14:22;4.40;99.90
33699;DHT22;20032;52.436;13.312;2023-02-01T16:16:48;4.30;99.90
33699;DHT22;20032;52.436;13.312;2023-02-01T16:19:14;4.20;99.90
33699;DHT22;20032;52.436;13.312;2023-02-01T16:21:39;4.00;99.90
33699;DHT22;20032;52.436;13.312;2023-02-01T16:24:05;3.90;99.90
33699;DHT22;20032;52.436;13.312;2023-02-01T16:26:32;3.80;99.90
33699;DHT22;20032;52.436;13.312;2023-02-01T16:28:58;3.80;99.90
33699;DHT22;20032;52.436;13.312;2023-02-01T16:31:28;3.60;99.90
33699;DHT22;20032;52.436;13.312;2023-02-01T16:33:53;3.50;99.90
33699;DHT22;20032;52.436;13.312;2023-02-01T16:36:19;3.50;99.90
33699;DHT22;20032;52.436;13.312;2023-02-01T16:38:46;3.50;99.90
33699;DHT22;20032;52.436;13.312;2023-02-01T16:41:14;3.60;99.90
33699;DHT22;20032;52.436;13.312;2023-02-01T16:43:40;3.60;99.90
33699;DHT22;20032;52.436;13.312;2023-02-01T16:46:05;3.60;99.90
33699;DHT22;20032;52.436;13.312;2023-02-01T16:48:36;3.60;99.90
33699;DHT22;20032;52.436;13.312;2023-02-01T16:51:10;3.60;99.90
33699;DHT22;20032;52.436;13.312;2023-02-01T16:53:37;3.60;99.90
33699;DHT22;20032;52.436;13.312;2023-02-01T16:58:39;3.50;99.90
33699;DHT22;20032;52.436;13.312;2023-02-01T17:01:06;3.60;99.90
33699;DHT22;20032;52.436;13.312;2023-02-01T17:03:32;3.50;99.90
33699;DHT22;20032;52.436;13.312;2023-02-01T17:05:57;3.60;99.90
33699;DHT22;20032;52.436;13.312;2023-02-01T17:08:29;3.60;99.90
33699;DHT22;20032;52.436;13.312;2023-02-01T17:10:55;3.60;99.90
33699;DHT22;20032;52.436;13.312;2023-02-01T17:13:20;3.60;99.90
33699;DHT22;20032;52.436;13.312;2023-02-01T17:15:50;3.70;99.90
33699;DHT22;20032;52.436;13.312;2023-02-01T17:18:18;3.70;99.90
33699;DHT22;20032;52.436;13.312;2023-02-01T17:20:44;3.70;99.90
33699;DHT22;20032;52.436;13.312;2023-02-01T17:23:12;3.70;99.90